Time;durP1;ratioP1;P1;durP2;ratioP2;P2;SDS_P1;SDS_P2;PMS_P1;PMS_P2;Temp;Humidity;BMP_temperature;BMP_pressure;BME280_temperature;BME280_humidity;BME280_pressure;Samples;Min_cycle;Max_cycle;Signal;HPM_P1;HPM_P2
2022/01/05 00:00:10;;;;;;;9.82;5.57;;;;;;;8.44;100.00;98679.44;5071595;28;20057;-74
2022/01/05 00:02:40;;;;;;;11.13;6.43;;;;;;;8.66;100.00;98683.97;5072223;28;20485;-72
2022/01/05 00:05:10;;;;;;;10.35;6.03;;;;;;;8.56;100.00;98671.38;5073327;28;20041;-72
2022/01/05 00:07:38;;;;;;;11.35;6.07;;;;;;;8.58;100.00;98665.94;5072304;28;20052;-71
2022/01/05 00:10:07;;;;;;;12.15;5.75;;;;;;;8.57;100.00;98678.38;5073202;28;20048;-71
2022/01/05 00:12:36;;;;;;;10.18;5.65;;;;;;;8.56;100.00;98667.88;5073224;28;20039;-71
2022/01/05 00:15:05;;;;;;;9.13;5.20;;;;;;;8.50;100.00;98673.69;5073196;28;20049;-71
2022/01/05 00:17:36;;;;;;;10.63;5.72;;;;;;;8.39;100.00;98677.13;5073019;28;20040;-71
2022/01/05 00:20:08;;;;;;;10.27;5.22;;;;;;;8.35;100.00;98678.34;5072844;28;20040;-71
2022/01/05 00:22:38;;;;;;;11.07;5.47;;;;;;;8.40;100.00;98670.88;5073185;28;20037;-71
2022/01/05 00:25:07;;;;;;;11.20;4.65;;;;;;;8.28;100.00;98664.63;5072727;28;20199;-71
2022/01/05 00:27:35;;;;;;;8.93;5.07;;;;;;;8.31;100.00;98667.06;5073319;28;20074;-71
2022/01/05 00:30:05;;;;;;;11.23;4.70;;;;;;;8.36;100.00;98656.13;5072980;28;20488;-71
2022/01/05 00:32:33;;;;;;;9.68;4.60;;;;;;;8.49;100.00;98648.91;5073239;28;20036;-71
2022/01/05 00:35:02;;;;;;;9.00;4.85;;;;;;;8.46;100.00;98649.13;5073030;28;20147;-71
2022/01/05 00:37:32;;;;;;;9.60;5.00;;;;;;;8.36;100.00;98648.16;5073186;28;20044;-71
2022/01/05 00:40:00;;;;;;;8.35;4.32;;;;;;;8.33;100.00;98651.00;5072874;28;20046;-71
2022/01/05 00:42:28;;;;;;;11.25;4.90;;;;;;;8.27;100.00;98649.66;5073093;28;20407;-72
2022/01/05 00:44:57;;;;;;;9.05;4.53;;;;;;;8.17;100.00;98655.78;5072677;28;20052;-72
2022/01/05 00:47:25;;;;;;;9.57;4.78;;;;;;;8.15;100.00;98660.38;5073037;28;20051;-71
2022/01/05 00:49:53;;;;;;;10.88;4.72;;;;;;;8.03;100.00;98656.84;5072606;28;20127;-72
2022/01/05 00:52:22;;;;;;;8.52;4.80;;;;;;;8.03;100.00;98657.69;5072723;28;20128;-72
2022/01/05 00:54:52;;;;;;;8.85;4.63;;;;;;;8.08;100.00;98657.31;5073017;28;20045;-72
2022/01/05 00:57:21;;;;;;;9.20;4.57;;;;;;;8.06;100.00;98661.06;5076469;28;20102;-71
2022/01/05 00:59:49;;;;;;;8.38;4.88;;;;;;;7.96;100.00;98663.56;5076628;28;20052;-71
2022/01/05 01:02:17;;;;;;;8.95;4.63;;;;;;;7.96;100.00;98675.03;5076489;28;20370;-71
2022/01/05 01:04:46;;;;;;;7.80;4.70;;;;;;;7.91;100.00;98666.56;5076683;28;20045;-71
2022/01/05 01:07:14;;;;;;;7.35;4.65;;;;;;;7.89;100.00;98665.81;5076411;28;20375;-71
2022/01/05 01:09:42;;;;;;;11.73;5.20;;;;;;;7.85;100.00;98671.47;5076907;28;20045;-71
2022/01/05 01:12:12;;;;;;;8.77;4.53;;;;;;;7.91;100.00;98671.88;5076570;28;20402;-71
2022/01/05 01:14:41;;;;;;;8.85;5.15;;;;;;;7.79;100.00;98667.47;5076809;28;20066;-71
2022/01/05 01:17:09;;;;;;;9.77;4.75;;;;;;;7.71;100.00;98667.16;5076030;28;20486;-71
2022/01/05 01:19:37;;;;;;;8.85;4.70;;;;;;;7.68;100.00;98660.28;5076489;28;20036;-70
2022/01/05 01:22:08;;;;;;;11.15;4.63;;;;;;;7.79;100.00;98664.81;5076390;28;20050;-71
2022/01/05 01:24:36;;;;;;;9.30;5.43;;;;;;;7.78;100.00;98670.22;5076661;28;20128;-71
2022/01/05 01:27:05;;;;;;;9.50;4.93;;;;;;;7.74;100.00;98664.31;5076314;28;20041;-71
2022/01/05 01:29:35;;;;;;;8.70;4.97;;;;;;;7.76;100.00;98657.06;5076680;28;20045;-71
2022/01/05 01:32:05;;;;;;;11.70;5.35;;;;;;;7.82;100.00;98643.38;5076189;28;20464;-71
2022/01/05 01:34:33;;;;;;;10.10;5.00;;;;;;;7.74;100.00;98640.44;5076531;28;20045;-71
2022/01/05 01:37:01;;;;;;;11.38;5.55;;;;;;;7.77;100.00;98632.22;5074745;28;20048;-73
2022/01/05 01:39:30;;;;;;;9.40;4.43;;;;;;;7.73;100.00;98633.44;5076047;28;20094;-71
2022/01/05 01:41:59;;;;;;;10.10;5.30;;;;;;;7.73;100.00;98628.13;5076345;28;20094;-71
2022/01/05 01:44:27;;;;;;;10.02;5.25;;;;;;;7.77;100.00;98637.53;5076287;28;20375;-71
2022/01/05 01:46:57;;;;;;;10.07;5.28;;;;;;;7.84;100.00;98637.94;5076159;28;20045;-71
2022/01/05 01:49:25;;;;;;;9.50;5.28;;;;;;;7.82;100.00;98635.41;5075586;28;20452;-71
2022/01/05 01:51:55;;;;;;;11.00;4.97;;;;;;;7.77;100.00;98642.00;5076236;28;20044;-71
2022/01/05 01:54:24;;;;;;;11.15;5.03;;;;;;;7.78;100.00;98633.91;5075795;28;20128;-71
2022/01/05 01:56:53;;;;;;;8.82;5.32;;;;;;;7.72;100.00;98635.22;5075925;28;20036;-70
2022/01/05 01:59:22;;;;;;;9.65;5.15;;;;;;;7.79;100.00;98629.44;5075409;28;20401;-71
2022/01/05 02:01:50;;;;;;;8.27;4.80;;;;;;;7.71;100.00;98627.34;5075867;28;20477;-70
2022/01/05 02:04:20;;;;;;;7.38;4.57;;;;;;;7.79;100.00;98624.16;5075247;28;20044;-71
2022/01/05 02:06:48;;;;;;;10.20;4.93;;;;;;;7.75;100.00;98636.81;5074919;28;20490;-71
2022/01/05 02:09:16;;;;;;;8.50;4.28;;;;;;;7.85;100.00;98640.47;5075525;28;20128;-71
2022/01/05 02:11:45;;;;;;;9.57;4.60;;;;;;;7.81;100.00;98639.00;5074425;28;20045;-70
2022/01/05 02:14:13;;;;;;;8.02;4.30;;;;;;;7.83;100.00;98634.44;5075453;28;20048;-71
2022/01/05 02:16:44;;;;;;;7.72;4.05;;;;;;;7.77;100.00;98642.00;5075730;28;20041;-70
2022/01/05 02:19:12;;;;;;;7.47;3.78;;;;;;;7.73;100.00;98646.69;5074045;28;20052;-73
2022/01/05 02:21:43;;;;;;;7.93;4.53;;;;;;;7.78;100.00;98649.84;5075702;28;20072;-73
2022/01/05 02:24:12;;;;;;;10.70;4.75;;;;;;;7.67;100.00;98647.13;5075330;28;20052;-73
2022/01/05 02:26:42;;;;;;;9.75;4.78;;;;;;;7.74;100.00;98632.47;5075193;28;20044;-72
2022/01/05 02:29:10;;;;;;;10.63;4.63;;;;;;;7.64;100.00;98628.78;5074943;28;20094;-72
2022/01/05 02:31:39;;;;;;;8.95;4.38;;;;;;;7.70;100.00;98625.66;5075421;28;20477;-71
2022/01/05 02:34:07;;;;;;;6.85;4.15;;;;;;;7.63;100.00;98629.75;5075248;28;20050;-72
2022/01/05 02:36:35;;;;;;;8.50;4.25;;;;;;;7.65;100.00;98625.19;5075322;28;20048;-71
2022/01/05 02:39:05;;;;;;;8.40;4.60;;;;;;;7.60;100.00;98620.19;5075192;28;20044;-71
2022/01/05 02:41:35;;;;;;;10.23;4.40;;;;;;;7.49;100.00;98614.00;5075199;28;20124;-71
2022/01/05 02:44:04;;;;;;;7.22;4.03;;;;;;;7.50;100.00;98621.00;5075018;28;20093;-71
2022/01/05 02:46:32;;;;;;;7.78;4.32;;;;;;;7.50;100.00;98624.50;5074834;28;20040;-71
2022/01/05 02:49:02;;;;;;;9.98;4.68;;;;;;;7.49;100.00;98616.66;5075095;28;20051;-72
2022/01/05 02:51:31;;;;;;;8.52;4.28;;;;;;;7.45;100.00;98616.03;5075100;28;20127;-72
2022/01/05 02:53:59;;;;;;;8.52;4.63;;;;;;;7.50;100.00;98608.56;5074988;28;20044;-71
2022/01/05 02:56:31;;;;;;;7.95;4.22;;;;;;;7.54;100.00;98610.06;5074696;28;20572;-71
2022/01/05 02:58:59;;;;;;;7.53;4.25;;;;;;;7.79;100.00;98611.72;5073334;28;20053;-71
2022/01/05 03:01:27;;;;;;;9.02;4.50;;;;;;;7.73;100.00;98609.53;5074342;28;20045;-71
2022/01/05 03:03:56;;;;;;;9.35;4.50;;;;;;;7.76;100.00;98604.00;5074411;28;20036;-71
2022/01/05 03:06:24;;;;;;;8.75;4.47;;;;;;;7.66;100.00;98614.44;5074428;28;20044;-72
2022/01/05 03:08:52;;;;;;;11.40;4.50;;;;;;;7.77;100.00;98608.34;5074708;28;20044;-72
2022/01/05 03:11:20;;;;;;;9.80;5.18;;;;;;;7.64;100.00;98604.91;5074020;28;20053;-72
2022/01/05 03:13:50;;;;;;;8.95;4.60;;;;;;;7.52;100.00;98601.34;5074321;28;20044;-72
2022/01/05 03:16:18;;;;;;;9.82;4.90;;;;;;;7.44;100.00;98604.56;5073988;28;20526;-73
2022/01/05 03:18:47;;;;;;;11.73;5.00;;;;;;;7.44;100.00;98609.03;5073419;28;20070;-72
2022/01/05 03:21:15;;;;;;;9.20;4.93;;;;;;;7.38;100.00;98606.81;5074168;28;20135;-73
2022/01/05 03:23:46;;;;;;;10.27;5.10;;;;;;;7.36;100.00;98609.59;5074370;28;20051;-73
2022/01/05 03:26:14;;;;;;;9.35;4.70;;;;;;;7.29;100.00;98615.44;5073832;28;20041;-73
2022/01/05 03:28:42;;;;;;;10.40;5.45;;;;;;;7.30;100.00;98612.69;5074302;28;20485;-71
2022/01/05 03:31:12;;;;;;;8.43;4.88;;;;;;;7.36;100.00;98609.59;5073909;28;20041;-71
2022/01/05 03:33:40;;;;;;;8.65;5.25;;;;;;;7.34;100.00;98605.38;5074317;28;20041;-71
2022/01/05 03:36:09;;;;;;;9.60;5.25;;;;;;;7.33;100.00;98604.50;5072479;28;20059;-72
2022/01/05 03:38:37;;;;;;;10.65;5.15;;;;;;;7.30;100.00;98612.69;5073960;28;20086;-71
2022/01/05 03:41:05;;;;;;;8.70;4.88;;;;;;;7.32;100.00;98600.16;5073788;28;20148;-71
2022/01/05 03:43:34;;;;;;;12.00;5.25;;;;;;;7.29;100.00;98605.69;5073798;28;20042;-71
2022/01/05 03:46:02;;;;;;;10.00;5.55;;;;;;;7.37;100.00;98597.19;5073731;28;20040;-71
2022/01/05 03:48:32;;;;;;;8.13;4.97;;;;;;;7.41;100.00;98591.53;5073626;28;20039;-71
2022/01/05 03:51:00;;;;;;;9.45;4.65;;;;;;;7.33;100.00;98601.84;5074407;28;20386;-71
2022/01/05 03:53:29;;;;;;;9.93;4.88;;;;;;;7.28;100.00;98588.09;5073523;28;20037;-71
2022/01/05 03:55:57;;;;;;;9.88;5.07;;;;;;;7.29;100.00;98597.72;5073856;28;20474;-71
2022/01/05 03:58:25;;;;;;;8.93;5.03;;;;;;;7.30;100.00;98588.81;5073376;28;20135;-71
2022/01/05 04:00:54;;;;;;;9.00;4.55;;;;;;;7.46;100.00;98591.19;5073825;28;20052;-71
2022/01/05 04:03:22;;;;;;;10.88;4.93;;;;;;;7.45;100.00;98586.84;5072937;28;20052;-71
2022/01/05 04:05:52;;;;;;;9.32;5.30;;;;;;;7.37;100.00;98582.09;5073769;28;20481;-71
2022/01/05 04:08:22;;;;;;;9.27;5.68;;;;;;;7.34;100.00;98573.53;5073299;28;20123;-72
2022/01/05 04:10:50;;;;;;;9.00;4.78;;;;;;;7.51;100.00;98582.88;5073601;28;20048;-72
2022/01/05 04:13:21;;;;;;;9.18;5.07;;;;;;;7.48;100.00;98578.66;5073218;28;20048;-72
2022/01/05 04:15:49;;;;;;;10.30;5.03;;;;;;;7.51;100.00;98590.84;5073452;28;20068;-71
2022/01/05 04:18:17;;;;;;;10.52;4.80;;;;;;;7.71;100.00;98590.22;5073041;28;20041;-72
2022/01/05 04:20:45;;;;;;;10.93;5.40;;;;;;;7.65;100.00;98580.06;5073505;28;20037;-72
2022/01/05 04:23:15;;;;;;;8.23;4.82;;;;;;;7.57;100.00;98585.09;5072953;28;20040;-73
2022/01/05 04:25:43;;;;;;;9.25;5.13;;;;;;;7.63;100.00;98576.69;5073294;28;20036;-72
2022/01/05 04:28:12;;;;;;;8.65;4.75;;;;;;;7.49;100.00;98572.38;5073284;28;20040;-72
2022/01/05 04:30:40;;;;;;;10.45;5.20;;;;;;;7.66;100.00;98571.16;5073071;28;20043;-71
2022/01/05 04:33:08;;;;;;;9.43;4.93;;;;;;;7.73;100.00;98567.06;5073034;28;20094;-71
2022/01/05 04:35:56;;;;;;;10.30;5.07;;;;;;;7.66;100.00;98579.94;5073180;28;20045;-71
2022/01/05 04:38:26;;;;;;;11.27;5.50;;;;;;;7.67;100.00;98573.69;5072461;28;20047;-71
2022/01/05 04:40:54;;;;;;;10.32;5.15;;;;;;;7.75;100.00;98570.47;5073147;28;20043;-71
2022/01/05 04:43:23;;;;;;;10.43;5.32;;;;;;;7.58;100.00;98579.66;5072797;28;20071;-71
2022/01/05 04:45:57;;;;;;;11.05;5.45;;;;;;;7.57;100.00;98577.13;5073128;28;20128;-70
2022/01/05 04:48:25;;;;;;;12.02;5.57;;;;;;;7.63;100.00;98566.06;5072408;28;20055;-71
2022/01/05 04:50:53;;;;;;;9.85;5.32;;;;;;;7.69;100.00;98571.75;5072989;28;20047;-71
2022/01/05 04:53:21;;;;;;;10.50;5.15;;;;;;;7.74;100.00;98566.13;5072436;28;20127;-71
2022/01/05 04:55:51;;;;;;;14.68;5.63;;;;;;;7.63;100.00;98569.56;5072682;28;20456;-71
2022/01/05 04:58:19;;;;;;;10.48;5.60;;;;;;;7.60;100.00;98574.25;5072619;28;20040;-71
2022/01/05 05:00:47;;;;;;;10.60;5.78;;;;;;;7.61;100.00;98567.97;5073122;28;20056;-72
2022/01/05 05:03:16;;;;;;;13.52;6.05;;;;;;;7.54;100.00;98572.06;5072457;28;20049;-72
2022/01/05 05:05:44;;;;;;;10.45;6.10;;;;;;;7.57;100.00;98571.81;5072871;28;20485;-72
2022/01/05 05:08:12;;;;;;;10.60;5.55;;;;;;;7.53;100.00;98562.38;5072841;28;20044;-71
2022/01/05 05:10:41;;;;;;;9.57;5.93;;;;;;;7.51;100.00;98562.50;5072429;28;20052;-72
2022/01/05 05:13:11;;;;;;;12.02;6.13;;;;;;;7.46;100.00;98565.50;5072834;28;20107;-71
2022/01/05 05:15:41;;;;;;;12.45;6.72;;;;;;;7.41;100.00;98554.38;5072320;28;20079;-72
2022/01/05 05:18:09;;;;;;;10.02;6.00;;;;;;;7.33;100.00;98570.00;5072804;28;20148;-72
2022/01/05 05:20:38;;;;;;;13.77;6.30;;;;;;;7.28;100.00;98572.16;5072295;28;20044;-72
2022/01/05 05:23:06;;;;;;;13.18;6.80;;;;;;;7.27;100.00;98569.63;5072729;28;20528;-72
2022/01/05 05:25:34;;;;;;;11.20;6.43;;;;;;;7.24;100.00;98576.03;5072350;28;20066;-72
2022/01/05 05:28:02;;;;;;;10.48;6.38;;;;;;;7.27;100.00;98565.19;5072705;28;20117;-72
2022/01/05 05:30:36;;;;;;;10.60;6.55;;;;;;;7.24;100.00;98570.72;5072272;28;20045;-72
2022/01/05 05:33:06;;;;;;;10.60;6.43;;;;;;;7.26;100.00;98579.41;5072468;28;20123;-72
2022/01/05 05:35:35;;;;;;;11.63;5.80;;;;;;;7.27;100.00;98580.25;5072203;28;20036;-71
2022/01/05 05:38:03;;;;;;;12.13;6.35;;;;;;;7.26;100.00;98582.06;5072238;28;20044;-70
2022/01/05 05:40:31;;;;;;;12.80;6.50;;;;;;;7.14;100.00;98588.22;5072231;28;20454;-71
2022/01/05 05:43:00;;;;;;;11.50;6.13;;;;;;;7.17;100.00;98580.91;5075009;28;20049;-71
2022/01/05 05:45:28;;;;;;;12.02;6.32;;;;;;;7.24;100.00;98586.63;5075915;28;20040;-71
2022/01/05 05:47:58;;;;;;;13.10;6.45;;;;;;;7.25;100.00;98596.28;5075962;28;20075;-71
2022/01/05 05:50:27;;;;;;;14.10;6.90;;;;;;;7.18;100.00;98600.31;5075557;28;20051;-71
2022/01/05 05:52:55;;;;;;;15.98;6.03;;;;;;;7.20;100.00;98601.03;5075771;28;20123;-71
2022/01/05 05:55:23;;;;;;;10.98;5.78;;;;;;;7.27;100.00;98604.97;5075643;28;20074;-71
2022/01/05 05:57:52;;;;;;;8.73;5.10;;;;;;;7.30;100.00;98607.38;5075981;28;20067;-71
2022/01/05 06:00:20;;;;;;;14.02;6.85;;;;;;;7.25;100.00;98609.53;5075573;28;20406;-73
2022/01/05 06:02:51;;;;;;;12.32;7.00;;;;;;;7.22;100.00;98615.03;5075773;28;20045;-70
2022/01/05 06:05:21;;;;;;;16.63;9.15;;;;;;;7.30;100.00;98617.97;5075561;28;20044;-70
2022/01/05 06:07:52;;;;;;;16.38;9.45;;;;;;;7.22;100.00;98603.59;5075819;28;20135;-71
2022/01/05 06:10:20;;;;;;;20.13;11.23;;;;;;;7.18;100.00;98600.31;5075470;28;20049;-74
2022/01/05 06:12:48;;;;;;;20.00;11.80;;;;;;;7.16;100.00;98599.59;5075818;28;20045;-72
2022/01/05 06:15:17;;;;;;;20.15;10.93;;;;;;;7.18;100.00;98603.81;5075608;28;20040;-72
2022/01/05 06:17:45;;;;;;;13.73;8.35;;;;;;;7.16;100.00;98604.91;5075368;28;20071;-72
2022/01/05 06:20:14;;;;;;;13.93;8.05;;;;;;;7.15;100.00;98605.84;5075341;28;20037;-72
2022/01/05 06:22:45;;;;;;;10.40;6.57;;;;;;;7.21;100.00;98601.91;5074677;28;20058;-72
2022/01/05 06:25:14;;;;;;;11.43;6.10;;;;;;;7.22;100.00;98604.44;5075032;28;20044;-71
2022/01/05 06:27:42;;;;;;;9.93;5.75;;;;;;;7.22;100.00;98604.44;5075041;28;20109;-71
2022/01/05 06:30:11;;;;;;;9.73;5.20;;;;;;;7.27;100.00;98612.91;5074168;28;20454;-72
2022/01/05 06:32:43;;;;;;;9.25;5.43;;;;;;;7.28;100.00;98613.75;5074849;28;20044;-71
2022/01/05 06:35:12;;;;;;;10.38;5.95;;;;;;;7.31;100.00;98609.06;5075290;28;20048;-70
2022/01/05 06:37:41;;;;;;;10.70;5.70;;;;;;;7.37;100.00;98595.38;5073569;28;20053;-71
2022/01/05 06:40:11;;;;;;;11.63;5.35;;;;;;;7.39;100.00;98606.72;5074708;28;20444;-71
2022/01/05 06:42:40;;;;;;;11.00;5.35;;;;;;;7.61;100.00;98600.66;5074800;28;20055;-71
2022/01/05 06:45:09;;;;;;;10.88;5.45;;;;;;;7.60;100.00;98608.75;5074748;28;20063;-71
2022/01/05 06:47:37;;;;;;;10.65;5.53;;;;;;;7.54;100.00;98604.75;5074612;28;20041;-72
2022/01/05 06:50:06;;;;;;;9.63;5.50;;;;;;;7.60;100.00;98601.63;5074799;28;20131;-71
2022/01/05 06:52:35;;;;;;;9.70;4.95;;;;;;;7.63;100.00;98598.75;5074722;28;20050;-71
2022/01/05 06:55:04;;;;;;;12.20;5.43;;;;;;;7.63;100.00;98597.91;5074941;28;20386;-73
2022/01/05 06:57:36;;;;;;;9.48;4.97;;;;;;;7.62;100.00;98594.38;5074064;28;20051;-71
2022/01/05 07:00:06;;;;;;;11.40;5.93;;;;;;;7.52;100.00;98605.78;5075027;28;20052;-70
2022/01/05 07:02:35;;;;;;;13.55;5.95;;;;;;;7.46;100.00;98610.63;5074517;28;20040;-71
2022/01/05 07:05:04;;;;;;;13.80;5.25;;;;;;;7.57;100.00;98608.97;5074531;28;20047;-70
2022/01/05 07:07:33;;;;;;;11.52;6.40;;;;;;;7.63;100.00;98608.53;5074271;28;20050;-71
2022/01/05 07:10:01;;;;;;;11.32;5.93;;;;;;;7.63;100.00;98605.88;5076792;28;20052;-70
2022/01/05 07:12:29;;;;;;;12.05;5.80;;;;;;;7.73;100.00;98604.22;5074921;28;20094;-69
2022/01/05 07:14:59;;;;;;;10.88;6.00;;;;;;;7.67;100.00;98594.06;5075669;28;20048;-69
2022/01/05 07:17:27;;;;;;;10.18;5.90;;;;;;;7.69;100.00;98602.75;5073922;28;20040;-69
2022/01/05 07:19:55;;;;;;;9.70;5.93;;;;;;;7.79;100.00;98597.59;5072319;28;20072;-70
2022/01/05 07:22:24;;;;;;;11.30;5.20;;;;;;;7.81;100.00;98601.81;5073514;28;20036;-70
2022/01/05 07:24:52;;;;;;;11.63;5.80;;;;;;;7.87;100.00;98601.38;5069891;28;20406;-69
2022/01/05 07:27:21;;;;;;;9.57;5.25;;;;;;;8.00;100.00;98604.78;5073497;28;20076;-69
2022/01/05 07:29:49;;;;;;;8.90;5.13;;;;;;;7.97;100.00;98617.47;5067983;28;20041;-71
2022/01/05 07:32:19;;;;;;;9.77;5.75;;;;;;;7.91;100.00;98613.47;5053367;28;20072;-67
2022/01/05 07:34:47;;;;;;;8.98;5.35;;;;;;;7.94;100.00;98612.38;5070383;28;20075;-70
2022/01/05 07:37:16;;;;;;;13.10;5.32;;;;;;;7.92;100.00;98615.16;5073348;28;20049;-65
2022/01/05 07:39:44;;;;;;;12.02;5.57;;;;;;;7.94;100.00;98615.88;5072678;28;20056;-69
2022/01/05 07:42:13;;;;;;;10.95;5.70;;;;;;;8.00;100.00;98628.69;5072755;28;20041;-72
2022/01/05 07:44:41;;;;;;;9.95;5.43;;;;;;;8.08;100.00;98621.97;5072753;28;20051;-69
2022/01/05 07:47:10;;;;;;;13.30;5.38;;;;;;;8.15;100.00;98631.16;5065239;28;20040;-71
2022/01/05 07:49:41;;;;;;;12.05;5.40;;;;;;;8.22;100.00;98619.13;5052610;28;20132;-70
2022/01/05 07:52:09;;;;;;;9.32;5.22;;;;;;;8.30;100.00;98624.69;5052547;28;20401;-71
2022/01/05 07:54:38;;;;;;;13.55;5.50;;;;;;;8.38;100.00;98617.00;5070851;28;20049;-71
2022/01/05 07:57:07;;;;;;;12.85;5.97;;;;;;;8.45;100.00;98607.59;5071638;28;20124;-72
2022/01/05 07:59:35;;;;;;;10.30;5.07;;;;;;;8.52;100.00;98607.97;5072280;28;20076;-72
2022/01/05 08:02:03;;;;;;;13.57;6.00;;;;;;;8.58;100.00;98612.78;5072537;28;20654;-72
2022/01/05 08:04:32;;;;;;;10.40;5.38;;;;;;;8.61;100.00;98612.56;5071830;28;20045;-71
2022/01/05 08:07:03;;;;;;;9.95;5.20;;;;;;;8.65;100.00;98611.34;5071611;28;20074;-71
2022/01/05 08:09:31;;;;;;;13.35;5.85;;;;;;;8.67;100.00;98614.72;5069715;28;20067;-71
2022/01/05 08:12:00;;;;;;;13.18;5.80;;;;;;;8.70;100.00;98622.47;5071233;28;20041;-72
2022/01/05 08:14:28;;;;;;;12.18;5.63;;;;;;;8.79;100.00;98615.59;5072100;28;20128;-72
2022/01/05 08:16:56;;;;;;;11.73;5.45;;;;;;;8.83;100.00;98617.88;5071742;28;20470;-71
2022/01/05 08:19:24;;;;;;;10.02;5.40;;;;;;;8.93;100.00;98631.28;5072117;28;20055;-71
2022/01/05 08:21:53;;;;;;;10.20;5.55;;;;;;;8.94;100.00;98630.31;5071256;28;20052;-71
2022/01/05 08:24:22;;;;;;;12.05;5.70;;;;;;;8.97;100.00;98640.72;5071721;28;20633;-71
2022/01/05 08:26:50;;;;;;;10.68;5.65;;;;;;;8.98;100.00;98645.09;5071742;28;20040;-71
2022/01/05 08:29:19;;;;;;;10.32;6.15;;;;;;;9.00;100.00;98640.50;5071824;28;20044;-71
2022/01/05 08:31:47;;;;;;;10.43;6.00;;;;;;;8.97;100.00;98638.06;5070938;28;20040;-72
2022/01/05 08:34:15;;;;;;;14.77;6.25;;;;;;;9.01;100.00;98636.84;5071251;28;20050;-70
2022/01/05 08:36:43;;;;;;;11.65;6.18;;;;;;;9.10;100.00;98641.44;5071121;28;20079;-69
2022/01/05 08:39:12;;;;;;;11.70;6.15;;;;;;;9.18;100.00;98644.34;5071861;28;20040;-69
2022/01/05 08:41:41;;;;;;;15.00;7.22;;;;;;;9.26;100.00;98645.53;5071035;28;20047;-71
2022/01/05 08:44:11;;;;;;;13.18;7.68;;;;;;;9.24;100.00;98637.69;5071552;28;20048;-68
2022/01/05 08:46:39;;;;;;;14.80;8.48;;;;;;;9.25;100.00;98633.19;5071239;28;20051;-73
2022/01/05 08:49:08;;;;;;;12.15;7.03;;;;;;;9.33;100.00;98633.44;5071814;28;20076;-69
2022/01/05 08:51:37;;;;;;;13.98;7.22;;;;;;;9.30;100.00;98625.72;5071779;28;20048;-71
2022/01/05 08:54:07;;;;;;;16.60;7.82;;;;;;;9.26;100.00;98619.75;5071377;28;20044;-68
2022/01/05 08:56:35;;;;;;;12.93;7.00;;;;;;;9.25;100.00;98622.56;5071595;28;20045;-72
2022/01/05 08:59:05;;;;;;;16.00;7.97;;;;;;;9.27;100.00;98626.81;5070940;28;20067;-71
2022/01/05 09:01:33;;;;;;;15.63;7.13;;;;;;;9.29;100.00;98632.00;5070877;28;20037;-72
2022/01/05 09:04:01;;;;;;;19.17;8.60;;;;;;;9.29;100.00;98634.66;5071307;28;20047;-71
2022/01/05 09:06:30;;;;;;;14.93;8.02;;;;;;;9.28;100.00;98630.31;5071607;28;20071;-72
2022/01/05 09:08:58;;;;;;;15.13;7.50;;;;;;;9.35;100.00;98634.16;5071214;28;20045;-71
2022/01/05 09:11:27;;;;;;;15.32;7.70;;;;;;;9.34;100.00;98638.63;5071399;28;20064;-71
2022/01/05 09:13:55;;;;;;;15.07;7.93;;;;;;;9.32;100.00;98648.56;5071198;28;20436;-71
2022/01/05 09:16:25;;;;;;;14.82;7.70;;;;;;;9.32;100.00;98656.53;5071195;28;20051;-71
2022/01/05 09:18:53;;;;;;;16.35;8.25;;;;;;;9.32;100.00;98658.34;5074924;28;20098;-71
2022/01/05 09:21:21;;;;;;;14.73;7.95;;;;;;;9.36;100.00;98654.47;5075349;28;20040;-72
2022/01/05 09:23:50;;;;;;;17.60;8.68;;;;;;;9.37;100.00;98648.19;5074728;28;20044;-70
2022/01/05 09:26:18;;;;;;;18.13;8.70;;;;;;;9.38;100.00;98656.06;5075082;28;20040;-71
2022/01/05 09:28:47;;;;;;;15.10;7.68;;;;;;;9.38;100.00;98660.53;5074932;28;20469;-71
2022/01/05 09:31:15;;;;;;;17.85;8.75;;;;;;;9.44;100.00;98644.06;5074984;28;20055;-72
2022/01/05 09:33:44;;;;;;;13.52;7.60;;;;;;;9.50;100.00;98643.56;5074885;28;20044;-73
2022/01/05 09:36:17;;;;;;;13.73;7.95;;;;;;;9.53;100.00;98653.94;5075218;28;20109;-71
2022/01/05 09:44:19;;;;;;;12.38;7.15;;;;;;;9.88;100.00;98679.53;5075040;28;20040;-70
2022/01/05 09:47:03;;;;;;;8.38;4.05;;;;;;;10.01;100.00;98664.22;5074609;28;20051;-71
2022/01/05 09:49:36;;;;;;;9.10;3.92;;;;;;;10.13;100.00;98665.84;5074844;28;20040;-70
2022/01/05 09:52:06;;;;;;;10.35;3.45;;;;;;;10.22;100.00;98673.13;5074517;28;20055;-70
2022/01/05 09:54:35;;;;;;;6.93;3.70;;;;;;;10.21;100.00;98671.38;5074360;28;20052;-71
2022/01/05 09:57:05;;;;;;;8.27;4.00;;;;;;;10.25;100.00;98678.22;5074362;28;20493;-73
2022/01/05 09:59:35;;;;;;;11.43;3.20;;;;;;;10.26;100.00;98660.41;5074576;28;20057;-71
2022/01/05 10:02:04;;;;;;;5.78;3.22;;;;;;;10.27;100.00;98657.59;5073924;28;20040;-69
2022/01/05 10:04:36;;;;;;;5.05;2.50;;;;;;;10.25;100.00;98651.56;5074585;28;20048;-72
2022/01/05 10:07:05;;;;;;;7.90;3.03;;;;;;;10.25;100.00;98656.03;5074319;28;20040;-70
2022/01/05 10:09:33;;;;;;;5.40;2.70;;;;;;;10.18;100.00;98661.00;5075651;28;20071;-70
2022/01/05 10:12:03;;;;;;;6.25;2.85;;;;;;;10.09;100.00;98656.44;5074226;28;20040;-71
2022/01/05 10:14:34;;;;;;;6.68;2.83;;;;;;;10.02;100.00;98660.56;5074393;28;20047;-71
2022/01/05 10:17:05;;;;;;;4.32;2.47;;;;;;;10.01;100.00;98664.22;5074137;28;20482;-71
2022/01/05 10:19:37;;;;;;;6.78;3.03;;;;;;;9.96;100.00;98675.25;5074409;28;20435;-72
2022/01/05 10:22:39;;;;;;;7.43;3.77;;;;;;;10.01;100.00;98674.88;5072663;28;20044;-70
2022/01/05 10:25:11;;;;;;;6.47;4.28;;;;;;;10.01;100.00;98664.22;5053418;28;20037;-71
2022/01/05 10:27:40;;;;;;;7.97;4.90;;;;;;;9.99;100.00;98666.16;5053701;28;20136;-72
2022/01/05 10:30:12;;;;;;;8.80;5.05;;;;;;;9.92;100.00;98671.16;5053972;28;20544;-70
2022/01/05 10:32:44;;;;;;;6.93;4.55;;;;;;;9.88;100.00;98660.88;5054311;28;20447;-69
2022/01/05 10:35:17;;;;;;;7.15;4.70;;;;;;;9.82;100.00;98674.69;5053458;28;20147;-71
2022/01/05 10:37:56;;;;;;;6.70;3.92;;;;;;;9.80;100.00;98669.50;5053928;28;20441;-71
2022/01/05 10:40:25;;;;;;;6.90;4.22;;;;;;;9.70;100.00;98677.41;5053993;28;20048;-73
2022/01/05 10:42:56;;;;;;;6.28;3.95;;;;;;;9.63;100.00;98676.19;5053403;28;20060;-71
2022/01/05 10:45:38;;;;;;;5.38;3.63;;;;;;;9.60;100.00;98676.44;5053576;28;20037;-71
2022/01/05 10:48:08;;;;;;;6.10;3.38;;;;;;;9.53;100.00;98669.91;5053394;28;20075;-71
2022/01/05 10:50:39;;;;;;;3.78;2.55;;;;;;;9.45;100.00;98662.56;5053376;28;20099;-71
2022/01/05 10:53:08;;;;;;;6.00;3.08;;;;;;;9.50;100.00;98686.16;5060908;28;20041;-70
2022/01/05 10:55:42;;;;;;;4.65;2.78;;;;;;;9.48;100.00;98703.22;5073561;28;20441;-71
2022/01/05 10:58:11;;;;;;;;;;;;;;;9.45;100.00;98694.50;5073316;28;20094;-71
2022/01/05 11:00:42;;;;;;;4.53;2.30;;;;;;;9.40;100.00;98696.69;5073160;28;20346;-71
2022/01/05 11:03:25;;;;;;;4.65;2.65;;;;;;;9.36;100.00;98705.91;5072824;28;20155;-70
2022/01/05 11:06:07;;;;;;;3.83;2.47;;;;;;;9.33;100.00;98705.28;5072877;28;20486;-70
2022/01/05 11:08:48;;;;;;;3.63;2.28;;;;;;;9.40;100.00;98717.13;5073115;28;20072;-70
2022/01/05 11:11:37;;;;;;;3.63;2.22;;;;;;;9.34;100.00;98713.13;5073321;28;20074;-70
2022/01/05 11:14:06;;;;;;;2.63;1.67;;;;;;;9.05;100.00;98711.91;5072697;28;20474;-71
2022/01/05 11:16:37;;;;;;;3.88;2.20;;;;;;;8.96;100.00;98716.13;5073112;28;20078;-71
2022/01/05 11:19:16;;;;;;;5.18;2.50;;;;;;;8.96;100.00;98731.25;5072982;28;20041;-70
2022/01/05 11:22:01;;;;;;;3.63;1.88;;;;;;;8.81;100.00;98730.63;5059548;28;20095;-71
2022/01/05 11:24:31;;;;;;;3.15;1.83;;;;;;;8.78;100.00;98730.84;5053082;28;20052;-71
2022/01/05 11:27:01;;;;;;;3.55;2.05;;;;;;;8.71;100.00;98740.28;5052721;28;20364;-70
2022/01/05 11:29:30;;;;;;;3.85;1.98;;;;;;;8.69;100.00;98736.91;5051802;28;20060;-70
2022/01/05 11:31:58;;;;;;;2.90;1.70;;;;;;;8.72;100.00;98736.66;5052674;28;20398;-71
2022/01/05 11:34:31;;;;;;;2.67;1.73;;;;;;;8.68;100.00;98745.81;5052413;28;20132;-71
2022/01/05 11:37:07;;;;;;;4.20;1.98;;;;;;;8.63;100.00;98743.53;5052384;28;20049;-71
2022/01/05 11:39:42;;;;;;;3.47;1.50;;;;;;;8.65;100.00;98751.38;5051568;28;20123;-71
2022/01/05 11:42:14;;;;;;;4.15;1.70;;;;;;;8.51;100.00;98749.78;5052497;28;20048;-70
2022/01/05 11:44:46;;;;;;;2.10;1.08;;;;;;;8.49;100.00;98735.72;5052023;28;20037;-70